createdAt,value
2023-06-22T00:00:40.478Z,9.33
2023-06-22T00:03:09.152Z,9.43
2023-06-22T00:05:37.624Z,9.47
2023-06-22T00:08:07.185Z,9.03
2023-06-22T00:10:36.320Z,9.27
2023-06-22T00:13:06.429Z,9.17
2023-06-22T00:15:34.884Z,10.97
2023-06-22T00:18:03.850Z,11.63
2023-06-22T00:20:32.576Z,10.60
2023-06-22T00:23:02.328Z,9.50
2023-06-22T00:25:30.788Z,9.10
2023-06-22T00:27:59.143Z,9.93
2023-06-22T00:30:29.305Z,9.30
2023-06-22T00:32:57.841Z,9.23
2023-06-22T00:35:30.544Z,9.50
2023-06-22T00:38:02.099Z,9.37
2023-06-22T00:40:31.124Z,9.10
2023-06-22T00:42:59.907Z,9.20
2023-06-22T00:45:29.853Z,11.03
2023-06-22T00:47:59.875Z,12.03
2023-06-22T00:50:35.109Z,15.43
2023-06-22T00:53:09.955Z,9.20
2023-06-22T00:55:40.058Z,9.53
2023-06-22T00:58:11.638Z,10.40
2023-06-22T01:00:42.953Z,12.90
2023-06-22T01:03:11.948Z,25.83
2023-06-22T01:05:41.516Z,9.77
2023-06-22T01:08:20.697Z,12.10
2023-06-22T01:10:54.127Z,9.17
2023-06-22T01:13:31.981Z,9.17
2023-06-22T01:16:08.110Z,9.10
2023-06-22T01:18:38.964Z,10.30
2023-06-22T01:21:10.525Z,10.50
2023-06-22T01:23:54.673Z,10.10
2023-06-22T01:26:40.350Z,9.60
2023-06-22T01:29:15.341Z,9.80
2023-06-22T01:31:44.832Z,10.40
2023-06-22T01:34:18.107Z,9.90
2023-06-22T01:36:47.846Z,13.30
2023-06-22T01:39:17.358Z,12.07
2023-06-22T01:41:48.927Z,10.53
2023-06-22T01:44:19.276Z,10.80
2023-06-22T01:46:48.541Z,10.20
2023-06-22T01:49:17.771Z,11.13
2023-06-22T01:51:46.281Z,10.13
2023-06-22T01:54:14.966Z,13.50
2023-06-22T01:56:43.436Z,10.23
2023-06-22T01:59:20.275Z,12.63
2023-06-22T02:01:57.333Z,11.27
2023-06-22T02:04:29.690Z,10.60
2023-06-22T02:07:00.807Z,11.73
2023-06-22T02:09:33.087Z,13.03
2023-06-22T02:12:04.780Z,9.90
2023-06-22T02:14:33.861Z,9.90
2023-06-22T02:17:03.982Z,10.77
2023-06-22T02:19:34.527Z,11.20
2023-06-22T02:22:03.044Z,12.23
2023-06-22T02:24:33.132Z,17.13
2023-06-22T02:27:02.147Z,10.43
2023-06-22T02:29:31.392Z,11.73
2023-06-22T02:31:59.774Z,11.00
2023-06-22T02:34:29.552Z,10.60
2023-06-22T02:36:58.067Z,10.00
2023-06-22T02:39:27.027Z,12.40
2023-06-22T02:41:57.704Z,10.23
2023-06-22T02:44:26.503Z,13.00
2023-06-22T02:46:55.757Z,10.53
2023-06-22T02:49:24.640Z,12.53
2023-06-22T02:51:56.596Z,10.50
2023-06-22T02:54:25.320Z,11.03
2023-06-22T02:56:53.875Z,9.60
2023-06-22T02:59:25.116Z,11.50
2023-06-22T03:01:54.606Z,9.03
2023-06-22T03:04:23.572Z,8.57
2023-06-22T03:06:52.708Z,8.97
2023-06-22T03:09:22.814Z,9.43
2023-06-22T03:11:51.407Z,11.20
2023-06-22T03:14:19.788Z,9.17
2023-06-22T03:16:49.118Z,11.93
2023-06-22T03:19:17.957Z,10.80
2023-06-22T03:21:46.365Z,8.87
2023-06-22T03:24:14.836Z,9.43
2023-06-22T03:26:47.623Z,9.20
2023-06-22T03:29:16.990Z,12.20
2023-06-22T03:31:45.437Z,9.87
2023-06-22T03:34:13.873Z,8.93
2023-06-22T03:36:42.348Z,9.23
2023-06-22T03:39:10.745Z,10.80
2023-06-22T03:41:39.481Z,9.63
2023-06-22T03:44:11.794Z,9.50
2023-06-22T03:46:40.218Z,10.60
2023-06-22T03:49:09.027Z,8.30
2023-06-22T03:51:37.447Z,8.63
2023-06-22T03:54:05.918Z,9.83
2023-06-22T03:56:34.372Z,9.20
2023-06-22T03:59:02.792Z,8.60
2023-06-22T04:01:34.887Z,9.47
2023-06-22T04:04:03.548Z,9.93
2023-06-22T04:06:32.095Z,9.33
2023-06-22T04:09:02.068Z,12.20
2023-06-22T04:11:30.559Z,10.67
2023-06-22T04:13:59.092Z,9.17
2023-06-22T04:16:27.847Z,11.90
2023-06-22T04:18:57.625Z,10.27
2023-06-22T04:21:26.062Z,8.40
2023-06-22T04:23:54.814Z,8.80
2023-06-22T04:26:23.254Z,9.10
2023-06-22T04:28:52.927Z,13.33
2023-06-22T04:31:21.608Z,10.10
2023-06-22T04:33:52.687Z,9.90
2023-06-22T04:36:24.025Z,9.37
2023-06-22T04:38:53.941Z,8.27
2023-06-22T04:41:25.398Z,14.63
2023-06-22T04:43:55.286Z,9.00
2023-06-22T04:46:24.255Z,8.50
2023-06-22T04:48:52.754Z,8.03
2023-06-22T04:51:22.958Z,8.60
2023-06-22T04:53:51.507Z,8.00
2023-06-22T04:56:22.834Z,8.83
2023-06-22T04:58:52.868Z,9.53
2023-06-22T05:01:23.327Z,8.00
2023-06-22T05:03:52.155Z,8.13
2023-06-22T05:06:22.170Z,8.43
2023-06-22T05:08:52.071Z,8.80
2023-06-22T05:11:21.221Z,20.23
2023-06-22T05:13:49.661Z,7.60
2023-06-22T05:16:18.242Z,7.70
2023-06-22T05:18:46.677Z,7.90
2023-06-22T05:21:15.151Z,7.67
2023-06-22T05:23:44.912Z,7.50
2023-06-22T05:26:13.442Z,8.23
2023-06-22T05:28:41.791Z,8.87
2023-06-22T05:31:10.664Z,7.20
2023-06-22T05:33:39.037Z,7.67
2023-06-22T05:36:07.964Z,12.20
2023-06-22T05:38:36.875Z,7.67
2023-06-22T05:41:07.041Z,6.93
2023-06-22T05:43:35.527Z,9.23
2023-06-22T05:46:05.031Z,9.20
2023-06-22T05:48:33.462Z,6.77
2023-06-22T05:51:01.986Z,8.07
2023-06-22T05:53:30.372Z,7.40
2023-06-22T05:55:58.725Z,7.20
2023-06-22T05:58:28.477Z,7.07
2023-06-22T06:00:57.265Z,6.97
2023-06-22T06:03:25.728Z,17.05
2023-06-22T06:05:54.093Z,6.65
2023-06-22T06:08:22.954Z,6.70
2023-06-22T06:10:51.537Z,7.22
2023-06-22T06:13:19.912Z,6.13
2023-06-22T06:15:49.650Z,8.90
2023-06-22T06:18:18.006Z,6.80
2023-06-22T06:20:46.376Z,7.30
2023-06-22T06:23:14.794Z,8.80
2023-06-22T06:25:43.224Z,7.07
2023-06-22T06:28:11.834Z,6.88
2023-06-22T06:30:40.123Z,8.48
2023-06-22T06:33:10.241Z,5.93
2023-06-22T06:35:38.958Z,6.18
2023-06-22T06:38:07.505Z,6.03
2023-06-22T06:40:36.263Z,5.70
2023-06-22T06:43:04.660Z,7.20
2023-06-22T06:45:34.438Z,6.80
2023-06-22T06:48:03.064Z,17.17
2023-06-22T06:50:33.298Z,6.72
2023-06-22T06:53:02.215Z,9.80
2023-06-22T06:55:34.234Z,6.13
2023-06-22T06:58:03.130Z,8.73
2023-06-22T07:00:31.880Z,6.30
2023-06-22T07:03:00.792Z,7.65
2023-06-22T07:05:29.121Z,6.63
2023-06-22T07:07:58.953Z,6.78
2023-06-22T07:10:27.791Z,7.03
2023-06-22T07:12:58.469Z,7.05
2023-06-22T07:15:26.943Z,16.75
2023-06-22T07:17:56.020Z,7.43
2023-06-22T07:20:24.450Z,7.93
2023-06-22T07:22:54.012Z,8.00
2023-06-22T07:25:23.752Z,7.50
2023-06-22T07:28:00.672Z,8.05
2023-06-22T07:30:29.528Z,7.28
2023-06-22T07:32:59.369Z,11.52
2023-06-22T07:35:27.771Z,7.55
2023-06-22T07:37:56.749Z,7.38
2023-06-22T07:40:27.366Z,8.95
2023-06-22T07:43:01.488Z,6.97
2023-06-22T07:45:29.879Z,6.60
2023-06-22T07:47:58.273Z,7.38
2023-06-22T07:50:26.960Z,12.30
2023-06-22T07:53:00.778Z,7.55
2023-06-22T07:55:30.743Z,9.60
2023-06-22T07:57:59.326Z,7.93
2023-06-22T08:00:27.813Z,11.47
2023-06-22T08:02:56.301Z,26.42
2023-06-22T08:05:24.678Z,7.80
2023-06-22T08:07:53.089Z,9.07
2023-06-22T08:10:21.886Z,11.53
2023-06-22T08:12:52.981Z,9.37
2023-06-22T08:15:21.479Z,8.37
2023-06-22T08:17:50.061Z,8.77
2023-06-22T08:20:18.641Z,9.40
2023-06-22T08:22:47.198Z,8.87
2023-06-22T08:25:15.713Z,10.77
2023-06-22T08:27:47.682Z,8.77
2023-06-22T08:30:18.035Z,8.47
2023-06-22T08:32:46.453Z,11.60
2023-06-22T08:35:14.892Z,14.60
2023-06-22T08:37:43.318Z,11.93
2023-06-22T08:40:12.861Z,9.40
2023-06-22T08:42:43.112Z,10.00
2023-06-22T08:45:12.834Z,10.50
2023-06-22T08:47:43.642Z,10.73
2023-06-22T08:50:13.236Z,11.57
2023-06-22T08:52:43.563Z,9.63
2023-06-22T08:55:12.410Z,11.00
2023-06-22T08:57:41.212Z,10.30
2023-06-22T09:00:21.388Z,11.00
2023-06-22T09:02:51.671Z,11.17
2023-06-22T09:05:20.388Z,9.87
2023-06-22T09:07:48.780Z,10.43
2023-06-22T09:10:17.220Z,12.60
2023-06-22T09:12:45.981Z,10.87
2023-06-22T09:15:17.490Z,10.80
2023-06-22T09:17:49.007Z,12.57
2023-06-22T09:20:19.973Z,10.80
2023-06-22T09:22:48.506Z,10.67
2023-06-22T09:25:17.017Z,11.23
2023-06-22T09:27:45.421Z,14.63
2023-06-22T09:30:14.540Z,11.50
2023-06-22T09:32:43.556Z,11.67
2023-06-22T09:35:14.176Z,12.90
2023-06-22T09:37:44.168Z,11.87
2023-06-22T09:40:14.612Z,11.73
2023-06-22T09:42:44.350Z,17.80
2023-06-22T09:45:13.027Z,12.43
2023-06-22T09:47:44.156Z,12.53
2023-06-22T09:50:13.252Z,11.40
2023-06-22T09:52:48.471Z,12.90
2023-06-22T09:55:19.184Z,10.77
2023-06-22T09:57:47.637Z,10.97
2023-06-22T10:00:17.678Z,11.77
2023-06-22T10:02:46.654Z,11.73
2023-06-22T10:05:18.574Z,12.47
2023-06-22T10:07:47.467Z,12.37
2023-06-22T10:13:00.596Z,12.57
2023-06-22T10:15:29.611Z,13.40
2023-06-22T10:17:58.408Z,11.67
2023-06-22T10:20:27.859Z,13.20
2023-06-22T10:22:58.809Z,11.13
2023-06-22T10:25:29.087Z,11.70
2023-06-22T10:27:59.630Z,12.30
2023-06-22T10:30:30.130Z,11.93
2023-06-22T10:32:58.605Z,11.97
2023-06-22T10:35:27.151Z,12.70
2023-06-22T10:37:57.451Z,12.63
2023-06-22T10:40:25.925Z,12.67
2023-06-22T10:42:54.319Z,12.60
2023-06-22T10:45:24.187Z,13.03
2023-06-22T10:47:52.700Z,38.80
2023-06-22T10:50:21.915Z,14.17
2023-06-22T10:52:52.427Z,15.03
2023-06-22T10:55:21.009Z,11.87
2023-06-22T10:57:51.083Z,15.53
2023-06-22T11:00:20.118Z,14.00
2023-06-22T11:02:50.460Z,12.17
2023-06-22T11:05:18.970Z,12.30
2023-06-22T11:07:47.495Z,12.40
2023-06-22T11:10:16.466Z,13.00
2023-06-22T11:12:45.014Z,12.17
2023-06-22T11:15:15.810Z,17.43
2023-06-22T11:17:44.252Z,11.53
2023-06-22T11:20:14.754Z,12.63
2023-06-22T11:22:43.766Z,12.33
2023-06-22T11:25:13.627Z,15.27
2023-06-22T11:27:42.181Z,15.87
2023-06-22T11:30:12.041Z,12.03
2023-06-22T11:32:40.622Z,12.93
2023-06-22T11:35:12.792Z,12.83
2023-06-22T11:37:44.026Z,12.30
2023-06-22T11:40:16.025Z,12.57
2023-06-22T11:42:44.548Z,11.63
2023-06-22T11:45:14.626Z,10.30
2023-06-22T11:47:43.179Z,12.03
2023-06-22T11:50:12.158Z,10.33
2023-06-22T11:52:42.017Z,12.53
2023-06-22T11:55:10.620Z,20.63
2023-06-22T11:57:40.082Z,11.80
2023-06-22T12:00:18.267Z,11.50
2023-06-22T12:02:47.697Z,10.70
2023-06-22T12:05:16.376Z,11.07
2023-06-22T12:07:46.488Z,11.90
2023-06-22T12:10:15.010Z,11.27
2023-06-22T12:12:43.686Z,12.20
2023-06-22T12:15:13.541Z,16.73
2023-06-22T12:17:42.668Z,17.07
2023-06-22T12:20:12.405Z,11.67
2023-06-22T12:22:40.877Z,11.57
2023-06-22T12:25:11.457Z,12.30
2023-06-22T12:27:40.446Z,11.50
2023-06-22T12:30:11.496Z,11.97
2023-06-22T12:32:40.177Z,14.13
2023-06-22T12:35:14.877Z,11.37
2023-06-22T12:37:44.133Z,11.03
2023-06-22T12:40:14.732Z,10.73
2023-06-22T12:42:43.706Z,10.90
2023-06-22T12:45:12.852Z,9.97
2023-06-22T12:47:41.641Z,10.20
2023-06-22T12:50:10.733Z,11.80
2023-06-22T12:52:42.271Z,14.17
2023-06-22T12:55:11.324Z,14.20
2023-06-22T12:57:41.234Z,15.67
2023-06-22T13:00:11.373Z,11.13
2023-06-22T13:02:39.911Z,10.83
2023-06-22T13:05:09.029Z,10.70
2023-06-22T13:07:37.430Z,12.83
2023-06-22T13:10:06.719Z,10.47
2023-06-22T13:12:35.214Z,9.37
2023-06-22T13:15:05.410Z,10.57
2023-06-22T13:17:33.851Z,9.53
2023-06-22T13:20:02.406Z,10.40
2023-06-22T13:22:32.969Z,13.00
2023-06-22T13:25:03.446Z,10.03
2023-06-22T13:27:32.029Z,9.20
2023-06-22T13:30:01.950Z,9.97
2023-06-22T13:32:31.977Z,9.60
2023-06-22T13:35:02.507Z,9.60
2023-06-22T13:37:32.148Z,9.07
2023-06-22T13:40:00.949Z,11.13
2023-06-22T13:42:29.586Z,11.13
2023-06-22T13:44:58.103Z,9.97
2023-06-22T13:47:27.875Z,9.53
2023-06-22T13:50:00.323Z,10.10
2023-06-22T13:52:41.206Z,10.20
2023-06-22T13:55:11.005Z,9.47
2023-06-22T13:57:39.833Z,8.90
2023-06-22T14:00:10.738Z,9.30
2023-06-22T14:02:39.294Z,9.30
2023-06-22T14:05:10.146Z,11.03
2023-06-22T14:07:38.696Z,9.80
2023-06-22T14:10:08.070Z,9.17
2023-06-22T14:12:36.387Z,9.27
2023-06-22T14:15:05.199Z,10.80
2023-06-22T14:17:34.245Z,11.57
2023-06-22T14:20:02.927Z,11.27
2023-06-22T14:22:32.826Z,9.13
2023-06-22T14:25:02.700Z,12.23
2023-06-22T14:27:31.132Z,10.10
2023-06-22T14:29:59.548Z,10.50
2023-06-22T14:32:31.000Z,9.60
2023-06-22T14:34:59.401Z,10.27
2023-06-22T14:37:28.326Z,12.73
2023-06-22T14:39:58.231Z,9.57
2023-06-22T14:42:32.207Z,12.07
2023-06-22T14:45:00.586Z,13.10
2023-06-22T14:47:30.614Z,9.03
2023-06-22T14:49:59.183Z,10.53
2023-06-22T14:52:28.421Z,11.07
2023-06-22T14:54:58.651Z,10.60
2023-06-22T14:57:27.248Z,10.73
2023-06-22T14:59:56.606Z,10.90
2023-06-22T15:02:25.714Z,11.80
2023-06-22T15:04:54.456Z,10.20
2023-06-22T15:07:22.787Z,13.53
2023-06-22T15:09:51.413Z,10.93
2023-06-22T15:12:21.194Z,12.97
2023-06-22T15:14:49.539Z,10.63
2023-06-22T15:17:17.877Z,9.53
2023-06-22T15:19:46.194Z,13.50
2023-06-22T15:22:17.887Z,10.67
2023-06-22T15:24:46.820Z,10.07
2023-06-22T15:27:16.982Z,11.40
2023-06-22T15:29:46.849Z,9.67
2023-06-22T15:32:15.139Z,11.10
2023-06-22T15:34:43.581Z,10.13
2023-06-22T15:37:13.248Z,9.80
2023-06-22T15:39:43.884Z,9.87
2023-06-22T15:42:12.887Z,10.00
2023-06-22T15:44:41.514Z,9.80
2023-06-22T15:47:11.497Z,9.40
2023-06-22T15:49:40.064Z,10.50
2023-06-22T15:52:08.764Z,11.03
2023-06-22T15:54:37.206Z,10.50
2023-06-22T15:57:05.862Z,12.13
2023-06-22T15:59:34.350Z,9.80
2023-06-22T16:02:02.933Z,16.23
2023-06-22T16:04:32.805Z,10.90
2023-06-22T16:07:01.341Z,10.27
2023-06-22T16:09:30.874Z,12.67
2023-06-22T16:11:59.773Z,10.30
2023-06-22T16:14:28.166Z,10.87
2023-06-22T16:16:56.510Z,11.30
2023-06-22T16:19:25.284Z,13.60
2023-06-22T16:21:56.233Z,9.90
2023-06-22T16:24:24.687Z,10.93
2023-06-22T16:26:53.292Z,10.23
2023-06-22T16:29:21.708Z,12.43
2023-06-22T16:31:52.459Z,9.77
2023-06-22T16:34:21.447Z,12.27
2023-06-22T16:36:52.328Z,18.70
2023-06-22T16:39:23.142Z,10.83
2023-06-22T16:41:51.824Z,13.43
2023-06-22T16:44:20.288Z,9.97
2023-06-22T16:46:48.800Z,11.20
2023-06-22T16:49:17.299Z,15.03
2023-06-22T16:51:47.980Z,11.20
2023-06-22T16:54:16.738Z,11.60
2023-06-22T16:56:48.315Z,11.80
2023-06-22T16:59:17.285Z,10.00
2023-06-22T17:01:53.913Z,10.17
2023-06-22T17:04:24.870Z,12.10
2023-06-22T17:06:59.651Z,10.40
2023-06-22T17:09:29.568Z,15.37
2023-06-22T17:12:03.403Z,29.37
2023-06-22T17:14:31.779Z,10.03
2023-06-22T17:17:01.689Z,11.80
2023-06-22T17:19:30.252Z,11.30
2023-06-22T17:22:00.417Z,18.60
2023-06-22T17:24:29.281Z,20.13
2023-06-22T17:27:00.860Z,14.87
2023-06-22T17:29:34.153Z,14.67
2023-06-22T17:32:03.879Z,21.00
2023-06-22T17:34:33.536Z,18.17
2023-06-22T17:37:02.482Z,12.33
2023-06-22T17:39:31.312Z,13.83
2023-06-22T17:42:01.102Z,15.37
2023-06-22T17:44:30.710Z,12.23
2023-06-22T17:47:00.613Z,12.90
2023-06-22T17:49:30.483Z,12.77
2023-06-22T17:51:59.094Z,12.40
2023-06-22T17:54:39.306Z,15.20
2023-06-22T17:57:19.990Z,14.57
2023-06-22T17:59:51.581Z,12.77
2023-06-22T18:02:25.077Z,19.23
2023-06-22T18:04:58.815Z,13.40
2023-06-22T18:07:29.242Z,12.53
2023-06-22T18:09:58.923Z,14.80
2023-06-22T18:12:29.872Z,17.70
2023-06-22T18:14:58.754Z,15.23
2023-06-22T18:17:27.761Z,13.43
2023-06-22T18:20:00.779Z,14.40
2023-06-22T18:22:30.545Z,18.70
2023-06-22T18:24:59.611Z,15.90
2023-06-22T18:27:30.597Z,20.20
2023-06-22T18:30:00.010Z,14.50
2023-06-22T18:32:30.632Z,19.13
2023-06-22T18:34:59.402Z,13.87
2023-06-22T18:37:32.314Z,18.10
2023-06-22T18:40:01.355Z,18.07
2023-06-22T18:42:32.176Z,14.47
2023-06-22T18:45:00.571Z,14.90
2023-06-22T18:47:30.264Z,30.13
2023-06-22T18:50:08.856Z,18.73
2023-06-22T18:52:39.516Z,20.17
2023-06-22T18:55:13.645Z,20.80
2023-06-22T18:57:44.430Z,18.67
2023-06-22T19:00:18.423Z,17.50
2023-06-22T19:02:48.846Z,21.13
2023-06-22T19:05:20.412Z,25.80
2023-06-22T19:07:59.875Z,53.07
2023-06-22T19:10:31.049Z,40.50
2023-06-22T19:13:20.605Z,50.53
2023-06-22T19:15:53.349Z,51.60
2023-06-22T19:18:23.078Z,32.37
2023-06-22T19:20:55.269Z,27.23
2023-06-22T19:23:31.420Z,27.07
2023-06-22T19:26:01.930Z,20.73
2023-06-22T19:28:33.479Z,30.70
2023-06-22T19:31:03.470Z,20.57
2023-06-22T19:33:33.847Z,19.90
2023-06-22T19:36:04.105Z,23.77
2023-06-22T19:38:34.223Z,40.27
2023-06-22T19:41:03.376Z,24.70
2023-06-22T19:43:33.695Z,19.10
2023-06-22T19:46:02.498Z,25.80
2023-06-22T19:48:32.294Z,45.27
2023-06-22T19:51:05.959Z,46.10
2023-06-22T19:53:34.636Z,27.50
2023-06-22T19:56:03.258Z,21.50
2023-06-22T19:58:36.666Z,21.23
2023-06-22T20:01:05.244Z,19.13
2023-06-22T20:03:34.875Z,23.43
2023-06-22T20:06:13.570Z,23.53
2023-06-22T20:08:48.211Z,20.70
2023-06-22T20:11:17.564Z,26.17
2023-06-22T20:13:50.900Z,20.83
2023-06-22T20:16:20.441Z,22.87
2023-06-22T20:18:51.970Z,19.03
2023-06-22T20:21:20.541Z,17.20
2023-06-22T20:23:48.988Z,20.30
2023-06-22T20:26:19.103Z,16.30
2023-06-22T20:28:48.303Z,35.57
2023-06-22T20:31:19.236Z,18.83
2023-06-22T20:33:47.670Z,19.23
2023-06-22T20:36:18.064Z,24.30
2023-06-22T20:38:47.032Z,19.67
2023-06-22T20:41:17.701Z,17.30
2023-06-22T20:43:46.240Z,16.53
2023-06-22T20:46:14.869Z,20.57
2023-06-22T20:48:45.712Z,20.80
2023-06-22T20:51:13.997Z,19.70
2023-06-22T20:53:42.263Z,16.10
2023-06-22T20:56:10.560Z,22.30
2023-06-22T20:58:38.965Z,18.90
2023-06-22T21:01:07.564Z,16.93
2023-06-22T21:03:36.719Z,33.27
2023-06-22T21:06:06.877Z,16.30
2023-06-22T21:08:35.221Z,17.00
2023-06-22T21:11:03.718Z,28.23
2023-06-22T21:13:33.616Z,21.37
2023-06-22T21:16:02.143Z,29.20
2023-06-22T21:18:36.543Z,19.17
2023-06-22T21:21:06.893Z,20.70
2023-06-22T21:23:35.655Z,17.30
2023-06-22T21:26:04.197Z,22.93
2023-06-22T21:28:33.540Z,15.93
2023-06-22T21:31:02.391Z,18.40
2023-06-22T21:33:31.271Z,29.63
2023-06-22T21:35:59.745Z,19.10
2023-06-22T21:38:29.841Z,20.03
2023-06-22T21:40:58.261Z,19.33
2023-06-22T21:43:26.644Z,18.67
2023-06-22T21:45:55.066Z,19.73
2023-06-22T21:48:23.548Z,17.47
2023-06-22T21:50:51.849Z,20.50
2023-06-22T21:53:20.112Z,19.63
2023-06-22T21:55:50.037Z,19.57
2023-06-22T21:58:19.121Z,17.53
2023-06-22T22:00:47.636Z,17.87
2023-06-22T22:03:16.078Z,18.60
2023-06-22T22:05:46.782Z,18.93
2023-06-22T22:08:15.524Z,18.80
2023-06-22T22:10:46.573Z,16.87
2023-06-22T22:13:17.071Z,19.03
2023-06-22T22:15:50.233Z,20.53
2023-06-22T22:18:18.841Z,21.03
2023-06-22T22:20:47.274Z,19.67
2023-06-22T22:23:15.677Z,21.67
2023-06-22T22:25:44.201Z,21.77
2023-06-22T22:28:12.700Z,22.33
2023-06-22T22:30:43.777Z,19.37
2023-06-22T22:33:12.337Z,19.53
2023-06-22T22:35:42.181Z,18.83
2023-06-22T22:38:10.649Z,24.50
2023-06-22T22:40:39.383Z,21.63
2023-06-22T22:43:07.822Z,19.00
2023-06-22T22:45:36.538Z,22.63
2023-06-22T22:48:07.796Z,25.97
2023-06-22T22:50:37.176Z,22.43
2023-06-22T22:53:06.369Z,24.50
2023-06-22T22:55:37.028Z,25.33
2023-06-22T22:58:06.250Z,24.40
2023-06-22T23:00:34.538Z,20.43
2023-06-22T23:03:03.550Z,23.50
2023-06-22T23:05:33.573Z,21.30
2023-06-22T23:08:05.002Z,20.23
2023-06-22T23:10:33.338Z,20.33
2023-06-22T23:13:02.345Z,20.10
2023-06-22T23:15:31.336Z,20.97
2023-06-22T23:18:00.201Z,21.00
2023-06-22T23:20:31.492Z,22.20
2023-06-22T23:23:01.635Z,20.80
2023-06-22T23:25:30.536Z,22.30
2023-06-22T23:27:59.349Z,21.07
2023-06-22T23:30:29.418Z,20.53
2023-06-22T23:32:58.815Z,22.60
2023-06-22T23:35:27.546Z,21.63
2023-06-22T23:37:56.065Z,20.77
2023-06-22T23:40:25.925Z,26.20
2023-06-22T23:42:54.292Z,22.63
2023-06-22T23:45:22.994Z,20.53
2023-06-22T23:47:52.260Z,21.00
2023-06-22T23:50:21.222Z,21.30
2023-06-22T23:52:50.887Z,21.87
2023-06-22T23:55:24.951Z,23.23
2023-06-22T23:57:57.879Z,28.23
